Time;durP1;ratioP1;P1;durP2;ratioP2;P2;SDS_P1;SDS_P2;PMS_P1;PMS_P2;Temp;Humidity;BMP_temperature;BMP_pressure;BME280_temperature;BME280_humidity;BME280_pressure;Samples;Min_cycle;Max_cycle;Signal;HPM_P1;HPM_P2
2023/09/05 00:01:51;;;;;;;5.97;3.10;;;;;;;21.34;53.76;100486.53;4914240;28;20574;-88
2023/09/05 00:04:18;;;;;;;6.22;3.25;;;;;;;21.37;53.67;100483.50;4928269;28;20059;-87
2023/09/05 00:06:46;;;;;;;4.55;2.63;;;;;;;21.38;53.66;100487.03;4925395;28;20527;-87
2023/09/05 00:09:15;;;;;;;3.40;3.05;;;;;;;21.31;53.53;100483.41;4926437;28;20055;-88
2023/09/05 00:11:41;;;;;;;4.80;2.85;;;;;;;21.34;53.52;100480.31;4916490;28;20060;-87
2023/09/05 00:14:10;;;;;;;3.60;2.72;;;;;;;21.32;53.30;100479.66;4906543;28;20044;-87
2023/09/05 00:16:38;;;;;;;3.58;2.90;;;;;;;21.28;53.60;100481.91;4912761;28;20055;-87
2023/09/05 00:19:05;;;;;;;3.75;2.80;;;;;;;21.30;53.54;100479.03;4924462;28;20043;-88
2023/09/05 00:21:32;;;;;;;3.67;2.88;;;;;;;21.36;53.38;100480.97;4924513;28;20039;-87
2023/09/05 00:24:33;;;;;;;3.30;2.80;;;;;;;21.13;53.01;100473.00;4926297;28;20075;-87
2023/09/05 00:27:03;;;;;;;5.45;2.85;;;;;;;21.23;53.09;100466.28;4913600;28;20150;-87
2023/09/05 00:29:31;;;;;;;3.83;2.80;;;;;;;21.26;53.25;100467.75;4916895;28;20047;-87
2023/09/05 00:31:59;;;;;;;4.03;2.70;;;;;;;21.28;53.28;100471.13;4896946;29;20131;-88
2023/09/05 00:34:33;;;;;;;3.42;3.00;;;;;;;21.23;53.36;100466.28;4926335;28;20050;-87
2023/09/05 00:37:01;;;;;;;4.40;2.88;;;;;;;21.23;53.20;100466.28;4881920;28;20043;-88
2023/09/05 00:39:28;;;;;;;3.45;3.15;;;;;;;21.11;53.09;100475.88;4925994;28;20047;-88
2023/09/05 00:41:56;;;;;;;5.00;2.95;;;;;;;21.09;53.22;100471.69;4909627;29;20103;-87
2023/09/05 00:44:23;;;;;;;5.70;3.17;;;;;;;21.00;53.30;100473.69;4895792;28;20039;-87
2023/09/05 00:46:52;;;;;;;4.75;3.33;;;;;;;21.05;53.50;100473.13;4899601;28;20043;-88
2023/09/05 00:49:22;;;;;;;6.30;3.00;;;;;;;21.10;53.24;100481.50;4896266;28;20044;-87
2023/09/05 00:51:50;;;;;;;5.68;3.20;;;;;;;21.07;53.32;100474.59;4897271;29;20051;-87
2023/09/05 00:54:18;;;;;;;3.85;2.92;;;;;;;21.03;53.22;100470.59;4939016;28;20050;-88
2023/09/05 00:56:45;;;;;;;3.83;2.95;;;;;;;21.01;53.38;100480.75;4908382;28;20885;-88
2023/09/05 00:59:12;;;;;;;4.85;3.03;;;;;;;21.05;52.99;100473.13;4913011;28;20491;-87
2023/09/05 01:01:40;;;;;;;4.13;2.83;;;;;;;21.02;53.02;100474.34;4898094;28;20058;-87
2023/09/05 01:04:09;;;;;;;4.82;3.17;;;;;;;20.95;53.30;100476.94;4896810;28;20044;-87
2023/09/05 01:06:51;;;;;;;5.55;3.15;;;;;;;20.92;53.38;100473.78;4927725;28;20043;-87
2023/09/05 01:09:46;;;;;;;3.80;3.13;;;;;;;20.93;53.37;100470.88;4936535;28;20044;-87
2023/09/05 01:12:13;;;;;;;3.10;2.80;;;;;;;21.05;52.80;100475.81;4943205;28;20054;-87
2023/09/05 01:14:40;;;;;;;3.70;2.97;;;;;;;21.03;53.08;100466.03;4937775;28;20050;-87
2023/09/05 01:17:06;;;;;;;3.78;2.78;;;;;;;21.07;53.09;100476.47;4915181;28;20062;-87
2023/09/05 01:19:37;;;;;;;4.13;3.28;;;;;;;21.08;53.26;100476.28;4905371;28;20075;-87
2023/09/05 01:22:12;;;;;;;5.80;3.08;;;;;;;21.04;55.08;100475.00;4926156;28;20043;-87
2023/09/05 01:24:40;;;;;;;3.30;3.00;;;;;;;21.05;55.02;100478.53;4920048;28;20050;-88
2023/09/05 01:27:08;;;;;;;4.22;3.20;;;;;;;21.04;55.29;100480.41;4906571;28;20050;-88
2023/09/05 01:29:36;;;;;;;5.57;3.20;;;;;;;21.00;55.44;100471.81;4912899;28;20051;-88
2023/09/05 01:32:04;;;;;;;4.47;3.15;;;;;;;20.96;55.58;100486.72;4908401;28;20055;-87
2023/09/05 01:34:32;;;;;;;4.90;3.03;;;;;;;20.92;55.86;100474.63;4921362;28;20042;-87
2023/09/05 01:36:58;;;;;;;3.85;3.40;;;;;;;20.90;56.10;100479.38;4938051;28;20130;-87
2023/09/05 01:39:25;;;;;;;5.22;3.33;;;;;;;20.89;56.01;100477.69;4919664;28;20051;-87
2023/09/05 01:41:52;;;;;;;5.07;3.22;;;;;;;20.89;56.08;100474.13;4910139;28;20062;-87
2023/09/05 01:44:20;;;;;;;4.65;3.30;;;;;;;20.84;55.40;100474.72;4924498;28;20078;-87
2023/09/05 01:46:46;;;;;;;5.40;2.90;;;;;;;20.84;54.98;100477.44;4891071;28;20097;-87
2023/09/05 01:49:13;;;;;;;5.40;3.15;;;;;;;20.78;54.87;100476.28;4906198;28;20082;-87
2023/09/05 01:51:40;;;;;;;5.35;3.15;;;;;;;20.77;54.95;100466.53;4911718;28;20450;-87
2023/09/05 01:54:07;;;;;;;5.82;2.83;;;;;;;20.78;54.74;100478.16;4888133;28;20103;-88
2023/09/05 01:56:34;;;;;;;4.57;3.15;;;;;;;20.75;54.86;100478.53;4906111;28;20054;-88
2023/09/05 01:59:01;;;;;;;3.55;3.00;;;;;;;20.77;54.88;100477.31;4922378;28;20051;-88
2023/09/05 02:01:27;;;;;;;4.57;3.15;;;;;;;20.70;54.67;100472.84;4903759;28;20155;-87
2023/09/05 02:03:54;;;;;;;4.63;3.28;;;;;;;20.72;55.38;100481.63;4922806;28;20046;-87
2023/09/05 02:06:21;;;;;;;4.63;2.88;;;;;;;20.73;55.70;100481.41;4933041;28;20058;-87
2023/09/05 02:08:48;;;;;;;6.05;2.97;;;;;;;20.72;55.35;100482.44;4879964;28;20131;-87
2023/09/05 02:11:15;;;;;;;5.65;3.55;;;;;;;20.73;55.70;100484.09;4905379;29;20044;-88
2023/09/05 02:13:42;;;;;;;4.70;3.05;;;;;;;20.71;55.51;100480.78;4918886;28;20611;-87
2023/09/05 02:16:08;;;;;;;3.70;3.03;;;;;;;20.69;55.82;100482.00;4924834;28;20126;-88
2023/09/05 02:18:35;;;;;;;3.63;3.00;;;;;;;20.60;55.09;100489.31;4899963;28;20061;-87
2023/09/05 02:21:03;;;;;;;5.72;3.25;;;;;;;20.55;55.27;100483.66;4920102;28;20043;-87
2023/09/05 02:23:30;;;;;;;4.13;2.92;;;;;;;20.59;55.44;100487.66;4893479;28;20058;-87
2023/09/05 02:25:59;;;;;;;3.85;2.92;;;;;;;20.55;55.82;100484.47;4922063;28;20059;-87
2023/09/05 02:28:26;;;;;;;3.83;3.35;;;;;;;20.51;55.57;100491.25;4905050;28;20567;-87
2023/09/05 02:30:54;;;;;;;3.90;2.90;;;;;;;20.50;55.54;100486.03;4909773;28;20046;-87
2023/09/05 02:33:22;;;;;;;3.45;3.00;;;;;;;20.51;55.85;100491.25;4870115;28;20468;-87
2023/09/05 02:35:49;;;;;;;3.65;2.88;;;;;;;20.48;56.97;100483.53;4938842;28;20067;-87
2023/09/05 02:38:16;;;;;;;5.22;3.03;;;;;;;20.46;56.61;100485.56;4954473;28;20055;-87
2023/09/05 02:40:44;;;;;;;3.78;3.08;;;;;;;20.43;56.04;100477.00;4925840;28;20047;-87
2023/09/05 02:43:11;;;;;;;3.85;2.75;;;;;;;20.38;55.91;100478.41;4893256;28;20047;-88
2023/09/05 02:45:38;;;;;;;5.15;3.42;;;;;;;20.41;56.42;100479.88;4923125;28;20043;-87
2023/09/05 02:48:06;;;;;;;3.95;2.97;;;;;;;20.38;56.01;100485.66;4924732;28;20686;-87
2023/09/05 02:50:33;;;;;;;4.38;2.67;;;;;;;20.42;55.80;100483.41;4921688;28;20043;-87
2023/09/05 02:53:00;;;;;;;7.30;3.15;;;;;;;20.40;55.73;100480.88;4933919;28;20055;-87
2023/09/05 02:55:27;;;;;;;4.45;2.92;;;;;;;20.32;55.85;100486.38;4938507;28;20499;-88
2023/09/05 02:57:54;;;;;;;4.43;2.95;;;;;;;20.36;55.65;100483.13;4894694;28;20043;-87
2023/09/05 03:00:22;;;;;;;6.20;3.33;;;;;;;20.32;55.54;100487.19;4906777;29;20126;-87
2023/09/05 03:02:49;;;;;;;6.68;3.30;;;;;;;20.37;55.42;100494.75;4928006;28;20071;-87
2023/09/05 03:05:17;;;;;;;4.90;2.70;;;;;;;20.34;55.73;100498.66;4904472;28;20051;-87
2023/09/05 03:07:45;;;;;;;4.45;2.88;;;;;;;20.34;56.70;100500.53;4898216;28;20495;-88
2023/09/05 03:10:12;;;;;;;4.40;2.80;;;;;;;20.31;57.08;100496.34;4889971;29;20043;-87
2023/09/05 03:12:39;;;;;;;5.97;3.35;;;;;;;20.28;57.03;100487.78;4912168;28;20789;-87
2023/09/05 03:15:07;;;;;;;3.03;2.63;;;;;;;20.25;57.61;100488.13;4919534;29;20050;-87
2023/09/05 03:17:34;;;;;;;4.78;3.10;;;;;;;20.24;57.44;100492.69;4891162;28;20098;-87
2023/09/05 03:20:01;;;;;;;3.47;2.97;;;;;;;20.25;57.26;100485.44;4937833;28;20048;-87
2023/09/05 03:22:28;;;;;;;3.28;2.53;;;;;;;20.23;57.89;100482.09;4932317;28;20567;-87
2023/09/05 03:24:54;;;;;;;4.90;2.53;;;;;;;20.22;57.58;100475.00;4905937;28;20179;-87
2023/09/05 03:27:22;;;;;;;5.00;3.00;;;;;;;20.21;57.66;100474.19;4892877;29;20507;-87
2023/09/05 03:29:49;;;;;;;5.15;3.05;;;;;;;20.21;56.82;100474.19;4891048;28;20134;-87
2023/09/05 03:32:16;;;;;;;4.25;2.90;;;;;;;20.21;57.08;100476.88;4922209;28;20133;-87
2023/09/05 03:34:48;;;;;;;5.88;2.78;;;;;;;20.15;57.17;100472.22;4935168;28;20043;-87
2023/09/05 03:37:16;;;;;;;3.72;2.72;;;;;;;20.09;56.73;100471.06;4894005;28;20414;-87
2023/09/05 03:39:42;;;;;;;7.30;3.60;;;;;;;20.08;56.72;100472.09;4890529;28;20075;-86
2023/09/05 03:42:12;;;;;;;7.05;3.10;;;;;;;20.04;57.64;100476.16;4912490;28;20499;-88
2023/09/05 03:44:39;;;;;;;5.28;3.13;;;;;;;20.03;57.60;100479.91;4895245;28;20067;-87
2023/09/05 03:47:06;;;;;;;3.90;3.08;;;;;;;20.06;56.80;100482.22;4940355;28;20453;-88
2023/09/05 03:49:33;;;;;;;6.35;3.28;;;;;;;20.07;57.14;100480.38;4932020;28;20068;-87
2023/09/05 03:52:00;;;;;;;3.25;2.63;;;;;;;20.01;56.73;100479.25;4906764;28;20151;-88
2023/09/05 03:54:27;;;;;;;3.53;2.97;;;;;;;20.03;57.96;100470.97;4937556;28;20047;-88
2023/09/05 03:56:53;;;;;;;6.05;3.17;;;;;;;19.98;57.06;100468.81;4913714;29;20122;-88
2023/09/05 03:59:20;;;;;;;2.97;2.55;;;;;;;20.03;56.69;100465.59;4914353;28;20115;-88
2023/09/05 04:01:49;;;;;;;5.60;2.88;;;;;;;20.00;56.46;100466.78;4935532;28;20051;-86
2023/09/05 04:04:16;;;;;;;4.90;2.80;;;;;;;20.00;56.13;100472.19;4944035;28;20043;-87
2023/09/05 04:06:43;;;;;;;3.88;2.88;;;;;;;20.02;56.28;100463.91;4920483;28;20071;-86
2023/09/05 04:09:13;;;;;;;3.33;2.67;;;;;;;20.01;56.18;100468.44;4912760;28;20043;-88
2023/09/05 04:11:40;;;;;;;3.10;2.60;;;;;;;19.97;56.15;100464.44;4936330;28;20058;-82
2023/09/05 04:14:07;;;;;;;4.15;2.78;;;;;;;19.98;55.89;100473.38;4910613;28;20054;-82
2023/09/05 04:16:33;;;;;;;3.78;2.78;;;;;;;19.92;56.08;100466.84;4908500;28;20131;-81
2023/09/05 04:19:01;;;;;;;5.00;3.30;;;;;;;19.89;56.06;100470.72;4906090;29;20131;-82
2023/09/05 04:21:27;;;;;;;3.20;2.70;;;;;;;19.85;55.77;100468.59;4938169;28;20126;-83
2023/09/05 04:23:54;;;;;;;5.35;3.10;;;;;;;19.79;55.99;100464.75;4938151;28;20058;-83
2023/09/05 04:26:22;;;;;;;6.30;2.47;;;;;;;19.72;56.36;100469.22;4941335;28;20125;-85
2023/09/05 04:28:49;;;;;;;3.00;2.67;;;;;;;19.71;56.01;100472.91;4925720;28;20062;-84
2023/09/05 04:31:19;;;;;;;4.35;3.00;;;;;;;19.73;55.95;100477.09;4895719;28;20055;-84
2023/09/05 04:33:46;;;;;;;3.85;3.17;;;;;;;19.71;56.20;100480.97;4936999;28;20530;-84
2023/09/05 04:36:13;;;;;;;3.90;2.97;;;;;;;19.69;56.48;100478.50;4910889;28;20177;-86
2023/09/05 04:38:43;;;;;;;6.03;3.00;;;;;;;19.62;56.08;100482.03;4928033;28;20750;-86
2023/09/05 04:41:10;;;;;;;3.78;2.78;;;;;;;19.67;56.14;100480.53;4934542;28;20047;-87
2023/09/05 04:43:37;;;;;;;6.80;2.78;;;;;;;19.67;56.03;100477.00;4925462;28;20130;-86
2023/09/05 04:46:05;;;;;;;3.63;2.60;;;;;;;19.67;56.43;100485.06;4897939;28;20052;-86
2023/09/05 04:48:32;;;;;;;3.85;2.50;;;;;;;19.62;56.55;100479.34;4933523;28;20078;-85
2023/09/05 04:51:02;;;;;;;3.75;2.80;;;;;;;19.64;56.10;100480.84;4926881;28;20062;-86
2023/09/05 04:53:29;;;;;;;4.45;2.90;;;;;;;19.62;56.53;100476.66;4888040;28;20790;-83
2023/09/05 04:56:00;;;;;;;3.15;2.42;;;;;;;19.53;56.57;100475.84;4924790;28;20135;-83
2023/09/05 04:58:29;;;;;;;4.55;2.65;;;;;;;19.45;56.62;100470.53;4921367;28;20062;-85
2023/09/05 05:01:01;;;;;;;4.00;2.60;;;;;;;19.54;56.49;100474.84;4950632;28;20051;-85
2023/09/05 05:03:32;;;;;;;4.65;2.65;;;;;;;19.47;56.63;100476.59;4924289;28;20135;-85
2023/09/05 05:05:59;;;;;;;5.60;2.72;;;;;;;19.43;56.68;100481.47;4894124;28;20491;-86
2023/09/05 05:08:26;;;;;;;5.20;3.08;;;;;;;19.40;56.63;100476.44;4938327;28;20051;-87
2023/09/05 05:10:54;;;;;;;5.93;2.80;;;;;;;19.42;56.70;100478.97;4923011;28;20048;-83
2023/09/05 05:13:21;;;;;;;7.75;2.90;;;;;;;19.43;56.83;100489.53;4908521;28;20053;-85
2023/09/05 05:15:47;;;;;;;3.45;2.90;;;;;;;19.40;56.74;100475.59;4933791;28;20055;-85
2023/09/05 05:18:14;;;;;;;8.15;2.75;;;;;;;19.31;57.09;100493.69;4938880;28;20102;-85
2023/09/05 05:20:41;;;;;;;3.97;2.80;;;;;;;19.27;57.41;100490.47;4908356;28;20074;-84
2023/09/05 05:23:08;;;;;;;4.50;2.80;;;;;;;19.36;57.35;100499.38;4951163;28;20071;-84
2023/09/05 05:25:36;;;;;;;2.80;2.30;;;;;;;19.39;57.40;100490.09;4936957;28;20046;-84
2023/09/05 05:28:04;;;;;;;2.90;2.60;;;;;;;19.35;57.25;100489.59;4934731;28;20052;-85
2023/09/05 05:30:36;;;;;;;3.92;2.72;;;;;;;19.38;57.53;100478.47;4905934;28;20044;-86
2023/09/05 05:33:03;;;;;;;3.38;2.60;;;;;;;19.43;57.43;100483.31;4946335;28;20054;-86
2023/09/05 05:35:30;;;;;;;7.13;2.80;;;;;;;19.52;57.04;100493.88;4905736;28;20047;-87
2023/09/05 05:37:57;;;;;;;5.38;2.78;;;;;;;19.55;57.39;100483.78;4905195;28;20511;-86
2023/09/05 05:40:24;;;;;;;4.43;2.40;;;;;;;19.58;57.38;100486.94;4899936;28;20523;-87
2023/09/05 05:42:51;;;;;;;5.78;3.33;;;;;;;19.60;57.57;100484.06;4910323;28;20047;-86
2023/09/05 05:45:18;;;;;;;4.28;2.75;;;;;;;19.63;57.46;100484.53;4938202;28;20505;-86
2023/09/05 05:47:44;;;;;;;3.42;2.65;;;;;;;19.64;57.31;100486.25;4937387;28;20398;-86
2023/09/05 05:50:11;;;;;;;5.07;3.00;;;;;;;19.65;57.47;100487.06;4920973;28;20061;-87
2023/09/05 05:52:39;;;;;;;4.93;3.03;;;;;;;19.68;57.42;100484.88;4924529;28;20058;-87
2023/09/05 05:55:06;;;;;;;2.80;2.50;;;;;;;19.71;57.39;100484.50;4894683;28;20057;-86
2023/09/05 05:57:33;;;;;;;4.78;2.90;;;;;;;19.73;57.62;100492.44;4908124;28;20118;-86
2023/09/05 05:59:59;;;;;;;3.97;2.92;;;;;;;19.70;57.52;100487.41;4933681;28;20075;-86
2023/09/05 06:02:26;;;;;;;3.22;2.45;;;;;;;19.68;57.49;100489.44;4933892;28;20051;-87
2023/09/05 06:04:53;;;;;;;4.05;2.97;;;;;;;19.67;57.65;100496.69;4908783;28;20062;-83
2023/09/05 06:07:20;;;;;;;4.78;2.60;;;;;;;19.71;57.26;100495.28;4921422;28;20055;-84
2023/09/05 06:09:47;;;;;;;4.50;2.65;;;;;;;19.73;57.31;100504.03;4941534;28;20414;-86
2023/09/05 06:12:13;;;;;;;3.22;2.53;;;;;;;19.71;57.61;100500.69;4925283;28;20054;-84
2023/09/05 06:14:40;;;;;;;4.22;2.70;;;;;;;19.78;57.46;100513.44;4913454;28;21052;-84
2023/09/05 06:17:07;;;;;;;6.00;2.97;;;;;;;19.82;57.37;100501.28;4936437;28;20058;-85
2023/09/05 06:19:34;;;;;;;4.90;2.90;;;;;;;19.88;57.79;100508.66;4934212;28;20063;-85
2023/09/05 06:22:00;;;;;;;3.75;2.28;;;;;;;19.82;57.40;100504.84;4920326;28;20062;-86
2023/09/05 06:24:27;;;;;;;6.75;3.33;;;;;;;19.87;57.53;100504.28;4911282;28;20051;-87
2023/09/05 06:26:54;;;;;;;5.95;2.67;;;;;;;19.90;57.71;100507.47;4916932;28;20130;-86
2023/09/05 06:29:21;;;;;;;4.47;2.83;;;;;;;19.87;57.72;100494.34;4926419;28;20423;-86
2023/09/05 06:31:48;;;;;;;5.35;2.80;;;;;;;19.90;57.86;100498.53;4950328;28;20058;-84
2023/09/05 06:34:16;;;;;;;4.50;2.70;;;;;;;19.93;57.49;100501.72;4929452;28;20055;-86
2023/09/05 06:36:43;;;;;;;3.83;2.85;;;;;;;19.95;57.71;100501.53;4920158;28;20048;-86
2023/09/05 06:39:11;;;;;;;3.25;2.53;;;;;;;20.00;57.54;100496.44;4926219;28;20050;-87
2023/09/05 06:41:39;;;;;;;3.80;2.88;;;;;;;20.03;57.86;100503.31;4906544;28;20130;-87
2023/09/05 06:44:06;;;;;;;3.88;2.80;;;;;;;20.07;57.50;100499.22;4893186;29;20054;-87
2023/09/05 06:46:35;;;;;;;4.55;3.53;;;;;;;20.09;57.82;100494.50;4938791;28;20210;-88
2023/09/05 06:49:02;;;;;;;6.63;2.78;;;;;;;20.08;57.97;100499.06;4923091;28;20066;-88
2023/09/05 06:51:30;;;;;;;5.68;3.00;;;;;;;20.10;58.25;100490.81;4908934;28;20078;-87
2023/09/05 06:53:58;;;;;;;6.53;3.65;;;;;;;20.09;58.55;100492.63;4936501;28;20058;-87
2023/09/05 06:56:26;;;;;;;5.68;2.83;;;;;;;20.11;58.52;100492.47;4892301;28;20443;-88
2023/09/05 06:58:52;;;;;;;4.53;2.67;;;;;;;20.15;58.59;100486.53;4920394;28;20062;-87
2023/09/05 07:01:19;;;;;;;6.13;3.25;;;;;;;20.21;58.62;100484.13;4905451;28;20083;-86
2023/09/05 07:03:46;;;;;;;5.53;2.88;;;;;;;20.21;58.54;100489.53;4950040;28;20051;-83
2023/09/05 07:06:18;;;;;;;5.22;2.95;;;;;;;20.25;59.30;100488.13;4923379;28;20444;-87
2023/09/05 07:08:46;;;;;;;5.93;3.03;;;;;;;20.30;59.20;100483.00;4923516;28;20750;-87
2023/09/05 07:11:16;;;;;;;4.47;2.67;;;;;;;20.34;59.26;100487.03;4920322;28;20110;-86
2023/09/05 07:13:43;;;;;;;6.72;3.53;;;;;;;20.37;59.29;100483.97;4934610;28;20472;-87
2023/09/05 07:16:10;;;;;;;4.13;2.83;;;;;;;20.39;58.71;100477.38;4926309;28;20039;-85
2023/09/05 07:18:36;;;;;;;3.92;2.78;;;;;;;20.39;58.87;100477.38;4891036;28;20051;-87
2023/09/05 07:21:03;;;;;;;5.03;2.70;;;;;;;20.44;58.57;100482.22;4908377;28;20055;-90
2023/09/05 07:23:30;;;;;;;6.40;2.83;;;;;;;20.45;58.69;100489.28;4933964;28;20118;-89
2023/09/05 07:26:03;;;;;;;6.65;2.97;;;;;;;20.47;58.79;100479.13;4924365;28;20055;-89
2023/09/05 07:28:30;;;;;;;;;;;;;;;20.37;59.43;100481.25;4927550;28;20092;-89
2023/09/05 07:30:56;;;;;;;3.22;2.63;;;;;;;20.55;59.22;100487.16;4904055;28;19933;-89
2023/09/05 07:33:23;;;;;;;4.43;2.45;;;;;;;20.61;59.78;100477.53;4934308;28;20051;-89
2023/09/05 07:35:50;;;;;;;5.40;2.80;;;;;;;20.66;59.56;100475.09;4951461;28;20744;-89
2023/09/05 07:38:20;;;;;;;4.45;2.40;;;;;;;20.69;58.99;100477.44;4948718;28;20082;-88
2023/09/05 07:40:48;;;;;;;6.70;2.75;;;;;;;20.74;58.50;100475.00;4921939;28;20071;-88
2023/09/05 07:43:14;;;;;;;3.15;2.42;;;;;;;20.77;58.54;100481.88;4934921;28;20073;-88
2023/09/05 07:45:41;;;;;;;3.45;2.63;;;;;;;20.81;58.20;100478.63;4941923;28;20058;-90
2023/09/05 07:48:08;;;;;;;5.25;2.53;;;;;;;20.86;58.02;100474.53;4928123;28;20127;-79
2023/09/05 07:50:36;;;;;;;3.35;2.63;;;;;;;20.90;58.07;100473.13;4917681;28;20200;-89
2023/09/05 07:53:02;;;;;;;3.17;2.08;;;;;;;20.94;57.86;100477.97;4939194;28;20054;-89
2023/09/05 07:55:29;;;;;;;3.40;2.65;;;;;;;20.97;57.76;100474.91;4936310;28;20131;-87
2023/09/05 07:57:56;;;;;;;3.50;2.60;;;;;;;20.99;57.99;100466.63;4952649;28;20127;-90
2023/09/05 08:00:27;;;;;;;3.83;2.65;;;;;;;21.01;57.24;100456.44;4944789;28;20501;-91
2023/09/05 08:02:54;;;;;;;4.43;2.15;;;;;;;21.03;57.62;100474.13;4940338;28;20050;-90
2023/09/05 08:05:21;;;;;;;2.65;2.33;;;;;;;21.08;57.42;100468.16;4939271;28;20055;-89
2023/09/05 08:07:48;;;;;;;3.90;2.60;;;;;;;21.10;57.30;100474.22;4922196;28;20090;-90
2023/09/05 08:10:15;;;;;;;3.70;2.88;;;;;;;21.14;57.43;100477.38;4907802;28;20061;-90
2023/09/05 08:12:42;;;;;;;3.80;2.47;;;;;;;21.16;58.07;100476.16;4923772;28;20058;-91
2023/09/05 08:15:10;;;;;;;3.13;2.72;;;;;;;21.22;58.05;100472.72;4924954;28;20649;-91
2023/09/05 08:17:37;;;;;;;2.65;2.33;;;;;;;21.25;57.92;100463.41;4928751;28;20558;-91
2023/09/05 08:20:04;;;;;;;4.18;2.22;;;;;;;21.27;58.04;100458.66;4938435;28;20522;-85
2023/09/05 08:22:32;;;;;;;4.00;2.55;;;;;;;21.32;57.92;100464.31;4940530;28;20827;-90
2023/09/05 08:24:59;;;;;;;3.05;2.22;;;;;;;21.34;57.56;100461.41;4924722;28;20126;-89
2023/09/05 08:27:28;;;;;;;3.40;2.47;;;;;;;21.36;57.80;100465.59;4908388;28;20055;-83
2023/09/05 08:29:57;;;;;;;3.05;2.10;;;;;;;21.41;57.14;100456.94;4904154;28;20586;-91
2023/09/05 08:32:24;;;;;;;2.85;2.40;;;;;;;21.41;57.27;100459.66;4926131;28;20040;-90
2023/09/05 08:34:51;;;;;;;3.50;2.95;;;;;;;21.45;57.19;100460.94;4942706;28;20130;-89
2023/09/05 08:37:19;;;;;;;4.03;2.53;;;;;;;21.46;57.25;100459.91;4951614;28;20046;-88
2023/09/05 08:39:46;;;;;;;5.10;2.70;;;;;;;21.49;57.24;100467.63;4925612;28;20131;-90
2023/09/05 08:42:13;;;;;;;2.72;2.15;;;;;;;21.51;57.27;100480.97;4919573;28;20047;-89
2023/09/05 08:44:41;;;;;;;4.07;2.70;;;;;;;21.54;57.55;100469.75;4922170;28;20050;-88
2023/09/05 08:47:08;;;;;;;8.90;3.05;;;;;;;21.55;57.23;100468.72;4920128;29;20101;-90
2023/09/05 08:49:37;;;;;;;4.70;2.25;;;;;;;21.57;56.89;100466.66;4923775;28;20376;-89
2023/09/05 08:52:04;;;;;;;2.95;2.10;;;;;;;21.58;57.21;100462.97;4909420;28;20043;-88
2023/09/05 08:54:31;;;;;;;3.42;3.08;;;;;;;21.60;57.51;100463.56;4943622;28;20053;-89
2023/09/05 08:56:58;;;;;;;4.55;2.47;;;;;;;21.63;57.12;100469.44;4919557;29;20070;-89
2023/09/05 08:59:25;;;;;;;4.38;2.65;;;;;;;21.66;57.08;100460.94;4925017;28;20134;-90
2023/09/05 09:01:52;;;;;;;2.65;2.38;;;;;;;21.70;57.09;100465.97;4938377;28;20062;-89
2023/09/05 09:04:22;;;;;;;3.85;2.45;;;;;;;21.70;56.98;100465.97;4919770;28;20981;-90
2023/09/05 09:06:55;;;;;;;3.88;2.58;;;;;;;21.72;57.18;100458.50;4936365;28;20047;-90
2023/09/05 09:09:35;;;;;;;2.50;2.30;;;;;;;21.72;56.91;100453.09;4921701;29;20050;-89
2023/09/05 09:12:02;;;;;;;3.80;2.53;;;;;;;21.78;56.93;100450.47;4924149;28;20063;-89
2023/09/05 09:14:29;;;;;;;3.17;2.63;;;;;;;21.78;56.78;100453.16;4935519;28;20060;-90
2023/09/05 09:17:04;;;;;;;2.50;2.28;;;;;;;21.81;56.65;100457.34;4927923;28;20055;-89
2023/09/05 09:19:32;;;;;;;5.53;2.58;;;;;;;21.83;56.48;100452.56;4894466;28;20615;-90
2023/09/05 09:22:01;;;;;;;2.95;2.28;;;;;;;21.85;56.81;100447.81;4924089;28;20066;-90
2023/09/05 09:24:34;;;;;;;2.65;1.95;;;;;;;21.84;56.76;100444.28;4908773;28;20506;-89
2023/09/05 09:27:03;;;;;;;3.00;2.13;;;;;;;21.89;56.59;100438.28;4938386;28;20051;-89
2023/09/05 09:29:33;;;;;;;2.45;2.20;;;;;;;21.92;56.54;100442.47;4935721;28;20134;-88
2023/09/05 09:32:03;;;;;;;2.60;2.22;;;;;;;21.93;56.73;100444.13;4938306;28;20141;-89
2023/09/05 09:34:31;;;;;;;2.88;2.10;;;;;;;21.96;56.72;100443.75;4934279;28;20051;-89
2023/09/05 09:36:58;;;;;;;3.13;2.30;;;;;;;21.98;56.58;100439.84;4935794;28;20138;-83
2023/09/05 09:39:28;;;;;;;2.85;2.20;;;;;;;21.99;56.13;100432.56;4950506;28;20055;-89
2023/09/05 09:41:56;;;;;;;3.63;2.28;;;;;;;22.01;56.01;100433.19;4950586;28;20151;-88
2023/09/05 09:44:25;;;;;;;2.53;2.33;;;;;;;22.01;56.55;100433.19;4920790;28;20090;-89
2023/09/05 09:46:53;;;;;;;3.45;2.45;;;;;;;22.03;56.77;100426.56;4945667;28;20476;-79
2023/09/05 09:49:22;;;;;;;2.90;2.60;;;;;;;22.03;56.40;100431.97;4917933;28;20107;-82
2023/09/05 09:51:55;;;;;;;2.58;2.35;;;;;;;22.07;56.42;100435.94;4949655;28;20146;-79
2023/09/05 09:54:29;;;;;;;3.20;2.50;;;;;;;22.07;55.66;100435.09;4901667;28;20039;-79
2023/09/05 09:57:00;;;;;;;3.17;2.22;;;;;;;22.08;56.01;100432.22;4926519;28;20051;-79
2023/09/05 09:59:35;;;;;;;2.97;2.17;;;;;;;22.10;55.79;100430.13;4929608;28;20040;-89
2023/09/05 10:02:08;;;;;;;3.22;1.98;;;;;;;22.11;55.14;100431.00;4936529;28;20092;-89
2023/09/05 10:04:42;;;;;;;2.30;2.10;;;;;;;22.14;55.74;100418.94;4944287;28;20047;-89
2023/09/05 10:07:14;;;;;;;3.63;2.17;;;;;;;22.16;55.53;100422.25;4921687;28;20123;-89
2023/09/05 10:09:44;;;;;;;2.78;2.20;;;;;;;22.20;56.14;100415.47;4911640;28;20544;-89
2023/09/05 10:12:15;;;;;;;3.33;2.53;;;;;;;22.23;55.96;100413.19;4925921;28;20052;-90
2023/09/05 10:15:54;;;;;;;2.97;2.28;;;;;;;22.25;55.83;100416.53;4880095;28;20126;-88
2023/09/05 10:18:22;;;;;;;4.68;2.40;;;;;;;22.27;55.44;100403.66;4925696;28;20075;-89
2023/09/05 10:20:54;;;;;;;6.18;2.47;;;;;;;22.28;55.17;100401.78;4947198;28;20055;-89
2023/09/05 10:23:23;;;;;;;3.63;2.35;;;;;;;22.28;55.68;100389.06;4922634;28;20683;-89
2023/09/05 10:25:51;;;;;;;2.33;2.10;;;;;;;22.31;56.02;100391.41;4889853;28;20051;-82
2023/09/05 10:28:18;;;;;;;7.07;2.85;;;;;;;22.37;56.12;100387.06;4929161;28;20137;-81
2023/09/05 10:30:50;;;;;;;2.90;2.20;;;;;;;22.37;55.36;100383.53;4919056;28;20412;-81
2023/09/05 10:33:17;;;;;;;4.05;2.08;;;;;;;22.39;55.37;100389.56;4917662;28;20052;-81
2023/09/05 10:35:44;;;;;;;3.88;2.20;;;;;;;22.43;55.90;100374.59;4932391;28;20117;-83
2023/09/05 10:38:15;;;;;;;2.78;2.40;;;;;;;22.44;55.67;100379.81;4947892;28;20063;-82
2023/09/05 10:40:41;;;;;;;2.10;1.90;;;;;;;22.47;56.15;100375.88;4929291;28;20146;-82
2023/09/05 10:43:19;;;;;;;3.38;2.05;;;;;;;22.50;55.76;100384.41;4929898;28;20134;-81
2023/09/05 10:45:55;;;;;;;2.80;2.28;;;;;;;22.51;55.54;100385.25;4918882;28;20122;-82
2023/09/05 10:48:45;;;;;;;6.78;2.13;;;;;;;22.52;55.99;100384.25;4916367;28;20039;-82
2023/09/05 10:51:13;;;;;;;2.78;2.03;;;;;;;22.59;55.75;100376.13;4919134;28;20280;-82
2023/09/05 10:53:45;;;;;;;4.40;2.05;;;;;;;22.60;55.65;100381.34;4930976;28;20047;-82
2023/09/05 10:56:36;;;;;;;2.45;2.05;;;;;;;22.58;55.97;100371.75;4917937;28;20122;-82
2023/09/05 10:59:07;;;;;;;1.95;1.77;;;;;;;22.67;56.11;100371.41;4940684;28;20501;-83
2023/09/05 11:01:37;;;;;;;3.15;1.88;;;;;;;22.69;55.91;100374.72;4934136;28;20043;-79
2023/09/05 11:04:07;;;;;;;3.10;2.15;;;;;;;22.71;55.14;100364.53;4933041;28;20047;-80
2023/09/05 11:06:34;;;;;;;2.60;2.17;;;;;;;22.72;55.15;100349.13;4901145;28;20067;-80
2023/09/05 11:09:06;;;;;;;2.75;1.95;;;;;;;22.75;55.63;100364.97;4890621;28;20058;-80
2023/09/05 11:11:36;;;;;;;3.05;1.85;;;;;;;22.76;55.54;100362.03;4923467;28;20051;-81
2023/09/05 11:14:04;;;;;;;3.83;1.98;;;;;;;22.80;55.59;100358.97;4937632;28;20191;-82
2023/09/05 11:16:49;;;;;;;3.20;2.15;;;;;;;22.75;55.47;100356.84;4916582;28;20056;-79
2023/09/05 11:19:38;;;;;;;1.95;1.83;;;;;;;22.74;53.34;100372.25;4926691;28;20055;-81
2023/09/05 11:22:15;;;;;;;2.83;1.70;;;;;;;22.83;54.58;100361.25;4929244;28;20420;-80
2023/09/05 11:24:47;;;;;;;2.33;2.03;;;;;;;22.86;54.69;100369.78;4925965;28;20048;-79
2023/09/05 11:27:20;;;;;;;2.78;2.08;;;;;;;22.88;54.39;100356.88;4894242;28;20523;-83
2023/09/05 11:29:46;;;;;;;2.03;1.80;;;;;;;22.93;54.48;100353.56;4920817;28;20110;-84
2023/09/05 11:32:14;;;;;;;3.00;1.88;;;;;;;22.95;54.61;100365.03;4910826;28;20050;-83